sensor_id;sensor_type;location;lat;lon;timestamp;temperature;humidity
5196;DHT22;2617;51.006;12.436;2023-02-28T00:02:50;-1.10;99.90
5196;DHT22;2617;51.006;12.436;2023-02-28T00:07:52;-1.10;99.90
5196;DHT22;2617;51.006;12.436;2023-02-28T00:12:55;-1.10;99.90
5196;DHT22;2617;51.006;12.436;2023-02-28T00:17:57;-1.20;99.90
5196;DHT22;2617;51.006;12.436;2023-02-28T00:23:01;-1.30;99.90
5196;DHT22;2617;51.006;12.436;2023-02-28T00:28:03;-1.30;99.90
5196;DHT22;2617;51.006;12.436;2023-02-28T00:33:06;-1.30;99.90
5196;DHT22;2617;51.006;12.436;2023-02-28T00:38:09;-1.30;99.90
5196;DHT22;2617;51.006;12.436;2023-02-28T00:43:11;-1.30;99.90
5196;DHT22;2617;51.006;12.436;2023-02-28T00:48:15;-1.30;99.90
5196;DHT22;2617;51.006;12.436;2023-02-28T00:53:17;-1.30;99.90
5196;DHT22;2617;51.006;12.436;2023-02-28T00:58:21;-1.40;99.90
5196;DHT22;2617;51.006;12.436;2023-02-28T01:03:23;-1.40;99.90
5196;DHT22;2617;51.006;12.436;2023-02-28T01:08:25;-1.40;99.90
5196;DHT22;2617;51.006;12.436;2023-02-28T01:13:29;-1.60;99.90
5196;DHT22;2617;51.006;12.436;2023-02-28T01:18:31;-1.60;99.90
5196;DHT22;2617;51.006;12.436;2023-02-28T01:23:33;-1.70;99.90
5196;DHT22;2617;51.006;12.436;2023-02-28T01:28:36;-1.80;99.90
5196;DHT22;2617;51.006;12.436;2023-02-28T01:33:39;-2.00;99.90
5196;DHT22;2617;51.006;12.436;2023-02-28T01:38:43;-2.20;99.90
5196;DHT22;2617;51.006;12.436;2023-02-28T01:43:59;-2.20;99.90
5196;DHT22;2617;51.006;12.436;2023-02-28T01:49:09;-2.20;99.90
5196;DHT22;2617;51.006;12.436;2023-02-28T01:54:11;-2.20;99.90
5196;DHT22;2617;51.006;12.436;2023-02-28T01:59:14;-2.20;99.90
5196;DHT22;2617;51.006;12.436;2023-02-28T02:04:16;-2.20;99.90
5196;DHT22;2617;51.006;12.436;2023-02-28T02:09:19;-2.10;99.90
5196;DHT22;2617;51.006;12.436;2023-02-28T02:14:36;-2.30;99.90
5196;DHT22;2617;51.006;12.436;2023-02-28T02:19:46;-2.30;99.90
5196;DHT22;2617;51.006;12.436;2023-02-28T02:30:46;-2.20;99.90
5196;DHT22;2617;51.006;12.436;2023-02-28T02:35:54;-2.40;99.90
5196;DHT22;2617;51.006;12.436;2023-02-28T02:46:08;-2.40;99.90
5196;DHT22;2617;51.006;12.436;2023-02-28T02:51:12;-2.40;99.90
5196;DHT22;2617;51.006;12.436;2023-02-28T02:56:13;-2.40;99.90
5196;DHT22;2617;51.006;12.436;2023-02-28T03:01:20;-2.50;99.90
5196;DHT22;2617;51.006;12.436;2023-02-28T03:06:22;-2.50;99.90
5196;DHT22;2617;51.006;12.436;2023-02-28T03:11:25;-2.50;99.90
5196;DHT22;2617;51.006;12.436;2023-02-28T03:16:32;-2.50;99.90
5196;DHT22;2617;51.006;12.436;2023-02-28T03:27:06;-2.50;99.90
5196;DHT22;2617;51.006;12.436;2023-02-28T03:32:13;-2.50;99.90
5196;DHT22;2617;51.006;12.436;2023-02-28T03:37:24;-2.50;99.90
5196;DHT22;2617;51.006;12.436;2023-02-28T03:42:27;-2.50;99.90
5196;DHT22;2617;51.006;12.436;2023-02-28T03:47:35;-2.50;99.90
5196;DHT22;2617;51.006;12.436;2023-02-28T03:52:39;-2.50;99.90
5196;DHT22;2617;51.006;12.436;2023-02-28T03:57:50;-2.50;99.90
5196;DHT22;2617;51.006;12.436;2023-02-28T04:02:52;-2.50;99.90
5196;DHT22;2617;51.006;12.436;2023-02-28T04:08:03;-2.60;99.90
5196;DHT22;2617;51.006;12.436;2023-02-28T04:13:12;-2.60;99.90
5196;DHT22;2617;51.006;12.436;2023-02-28T04:18:14;-2.60;99.90
5196;DHT22;2617;51.006;12.436;2023-02-28T04:23:19;-2.60;99.90
5196;DHT22;2617;51.006;12.436;2023-02-28T04:28:21;-2.60;99.90
5196;DHT22;2617;51.006;12.436;2023-02-28T04:33:27;-2.50;99.90
5196;DHT22;2617;51.006;12.436;2023-02-28T04:38:32;-2.60;99.90
5196;DHT22;2617;51.006;12.436;2023-02-28T04:43:34;-2.70;99.90
5196;DHT22;2617;51.006;12.436;2023-02-28T04:48:37;-2.90;99.90
5196;DHT22;2617;51.006;12.436;2023-02-28T04:53:40;-3.00;99.90
5196;DHT22;2617;51.006;12.436;2023-02-28T04:58:41;-2.90;99.90
5196;DHT22;2617;51.006;12.436;2023-02-28T05:03:44;-2.70;99.90
5196;DHT22;2617;51.006;12.436;2023-02-28T05:08:47;-2.60;99.90
5196;DHT22;2617;51.006;12.436;2023-02-28T05:13:50;-2.60;99.90
5196;DHT22;2617;51.006;12.436;2023-02-28T05:18:53;-2.60;99.90
5196;DHT22;2617;51.006;12.436;2023-02-28T05:23:56;-2.70;99.90
5196;DHT22;2617;51.006;12.436;2023-02-28T05:28:58;-2.60;99.90
5196;DHT22;2617;51.006;12.436;2023-02-28T05:34:00;-2.40;99.90
5196;DHT22;2617;51.006;12.436;2023-02-28T05:39:05;-2.20;99.90
5196;DHT22;2617;51.006;12.436;2023-02-28T05:44:07;-2.20;99.90
5196;DHT22;2617;51.006;12.436;2023-02-28T05:49:09;-2.20;99.90
5196;DHT22;2617;51.006;12.436;2023-02-28T05:54:13;-2.00;99.90
5196;DHT22;2617;51.006;12.436;2023-02-28T05:59:16;-2.00;99.90
5196;DHT22;2617;51.006;12.436;2023-02-28T06:04:20;-2.00;99.90
5196;DHT22;2617;51.006;12.436;2023-02-28T06:09:22;-2.00;99.90
5196;DHT22;2617;51.006;12.436;2023-02-28T06:14:25;-1.90;99.90
5196;DHT22;2617;51.006;12.436;2023-02-28T06:19:28;-1.80;99.90
5196;DHT22;2617;51.006;12.436;2023-02-28T06:24:31;-1.80;99.90
5196;DHT22;2617;51.006;12.436;2023-02-28T06:29:34;-1.80;99.90
5196;DHT22;2617;51.006;12.436;2023-02-28T06:34:37;-1.80;99.90
5196;DHT22;2617;51.006;12.436;2023-02-28T06:39:39;-1.80;99.90
5196;DHT22;2617;51.006;12.436;2023-02-28T06:44:42;-1.80;99.90
5196;DHT22;2617;51.006;12.436;2023-02-28T06:49:44;-1.80;99.90
5196;DHT22;2617;51.006;12.436;2023-02-28T06:54:47;-1.70;99.90
5196;DHT22;2617;51.006;12.436;2023-02-28T06:59:50;-1.70;99.90
5196;DHT22;2617;51.006;12.436;2023-02-28T07:04:52;-1.60;99.90
5196;DHT22;2617;51.006;12.436;2023-02-28T07:09:56;-1.50;99.90
5196;DHT22;2617;51.006;12.436;2023-02-28T07:14:59;-1.40;99.90
5196;DHT22;2617;51.006;12.436;2023-02-28T07:20:03;-1.30;99.90
5196;DHT22;2617;51.006;12.436;2023-02-28T07:25:08;-1.40;99.90
5196;DHT22;2617;51.006;12.436;2023-02-28T07:30:10;-1.30;99.90
5196;DHT22;2617;51.006;12.436;2023-02-28T07:35:13;-1.10;99.90
5196;DHT22;2617;51.006;12.436;2023-02-28T07:40:17;-0.90;99.90
5196;DHT22;2617;51.006;12.436;2023-02-28T07:45:20;-0.80;99.90
5196;DHT22;2617;51.006;12.436;2023-02-28T07:50:23;-0.80;99.90
5196;DHT22;2617;51.006;12.436;2023-02-28T07:55:26;-0.60;99.90
5196;DHT22;2617;51.006;12.436;2023-02-28T08:00:29;-0.60;99.90
5196;DHT22;2617;51.006;12.436;2023-02-28T08:05:31;-0.60;99.90
5196;DHT22;2617;51.006;12.436;2023-02-28T08:10:35;-0.40;99.90
5196;DHT22;2617;51.006;12.436;2023-02-28T08:15:39;-0.40;99.90
5196;DHT22;2617;51.006;12.436;2023-02-28T08:20:40;-0.40;99.90
5196;DHT22;2617;51.006;12.436;2023-02-28T08:25:43;-0.20;99.90
5196;DHT22;2617;51.006;12.436;2023-02-28T08:30:45;-0.20;99.90
5196;DHT22;2617;51.006;12.436;2023-02-28T08:35:48;0.10;99.90
5196;DHT22;2617;51.006;12.436;2023-02-28T08:40:58;0.10;99.90
5196;DHT22;2617;51.006;12.436;2023-02-28T08:45:59;0.10;99.90
5196;DHT22;2617;51.006;12.436;2023-02-28T08:51:04;0.30;99.90
5196;DHT22;2617;51.006;12.436;2023-02-28T08:56:07;0.40;99.90
5196;DHT22;2617;51.006;12.436;2023-02-28T09:01:09;0.50;99.90
5196;DHT22;2617;51.006;12.436;2023-02-28T09:06:12;0.70;99.90
5196;DHT22;2617;51.006;12.436;2023-02-28T09:11:14;0.70;99.90
5196;DHT22;2617;51.006;12.436;2023-02-28T09:16:17;0.80;99.90
5196;DHT22;2617;51.006;12.436;2023-02-28T09:21:20;1.00;99.90
5196;DHT22;2617;51.006;12.436;2023-02-28T09:26:24;1.10;99.90
5196;DHT22;2617;51.006;12.436;2023-02-28T09:31:26;1.20;99.90
5196;DHT22;2617;51.006;12.436;2023-02-28T09:36:28;1.30;98.20
5196;DHT22;2617;51.006;12.436;2023-02-28T09:41:35;1.60;98.10
5196;DHT22;2617;51.006;12.436;2023-02-28T09:46:37;1.90;97.00
5196;DHT22;2617;51.006;12.436;2023-02-28T09:51:47;2.10;95.90
5196;DHT22;2617;51.006;12.436;2023-02-28T09:56:59;2.10;97.10
5196;DHT22;2617;51.006;12.436;2023-02-28T10:02:10;1.90;95.40
5196;DHT22;2617;51.006;12.436;2023-02-28T10:07:28;1.50;95.70
5196;DHT22;2617;51.006;12.436;2023-02-28T10:12:41;1.50;95.40
5196;DHT22;2617;51.006;12.436;2023-02-28T10:17:44;1.50;95.40
5196;DHT22;2617;51.006;12.436;2023-02-28T10:22:52;1.70;95.80
5196;DHT22;2617;51.006;12.436;2023-02-28T10:28:00;2.20;92.60
5196;DHT22;2617;51.006;12.436;2023-02-28T10:33:01;2.30;91.60
5196;DHT22;2617;51.006;12.436;2023-02-28T10:38:08;2.50;92.60
5196;DHT22;2617;51.006;12.436;2023-02-28T10:43:21;2.50;92.60
5196;DHT22;2617;51.006;12.436;2023-02-28T10:48:29;3.00;91.10
5196;DHT22;2617;51.006;12.436;2023-02-28T10:53:35;3.00;91.00
5196;DHT22;2617;51.006;12.436;2023-02-28T10:58:46;3.00;91.10
5196;DHT22;2617;51.006;12.436;2023-02-28T11:03:50;3.00;91.10
5196;DHT22;2617;51.006;12.436;2023-02-28T11:08:58;2.80;90.40
5196;DHT22;2617;51.006;12.436;2023-02-28T11:14:03;2.60;92.20
5196;DHT22;2617;51.006;12.436;2023-02-28T11:19:06;2.60;92.10
5196;DHT22;2617;51.006;12.436;2023-02-28T11:24:21;2.60;91.00
5196;DHT22;2617;51.006;12.436;2023-02-28T11:29:31;2.70;93.40
5196;DHT22;2617;51.006;12.436;2023-02-28T11:34:34;2.80;93.60
5196;DHT22;2617;51.006;12.436;2023-02-28T11:39:36;2.30;91.40
5196;DHT22;2617;51.006;12.436;2023-02-28T11:55:45;2.00;93.50
5196;DHT22;2617;51.006;12.436;2023-02-28T12:01:09;1.80;93.60
5196;DHT22;2617;51.006;12.436;2023-02-28T12:06:21;1.80;93.60
5196;DHT22;2617;51.006;12.436;2023-02-28T12:11:28;1.80;94.30
5196;DHT22;2617;51.006;12.436;2023-02-28T12:22:20;2.50;93.80
5196;DHT22;2617;51.006;12.436;2023-02-28T12:27:23;2.80;93.60
5196;DHT22;2617;51.006;12.436;2023-02-28T12:32:29;2.80;94.00
5196;DHT22;2617;51.006;12.436;2023-02-28T12:37:34;2.70;94.30
5196;DHT22;2617;51.006;12.436;2023-02-28T12:42:41;2.50;93.20
5196;DHT22;2617;51.006;12.436;2023-02-28T12:48:00;2.20;94.20
5196;DHT22;2617;51.006;12.436;2023-02-28T12:53:09;2.10;93.60
5196;DHT22;2617;51.006;12.436;2023-02-28T12:58:14;2.10;94.80
5196;DHT22;2617;51.006;12.436;2023-02-28T13:14:19;2.50;93.00
5196;DHT22;2617;51.006;12.436;2023-02-28T13:19:22;2.60;94.10
5196;DHT22;2617;51.006;12.436;2023-02-28T13:24:37;2.60;94.10
5196;DHT22;2617;51.006;12.436;2023-02-28T13:29:40;3.00;95.00
5196;DHT22;2617;51.006;12.436;2023-02-28T13:35:12;2.90;94.20
5196;DHT22;2617;51.006;12.436;2023-02-28T13:40:27;2.80;94.60
5196;DHT22;2617;51.006;12.436;2023-02-28T13:45:28;2.90;94.60
5196;DHT22;2617;51.006;12.436;2023-02-28T13:50:39;2.90;91.70
5196;DHT22;2617;51.006;12.436;2023-02-28T14:01:16;2.40;94.60
5196;DHT22;2617;51.006;12.436;2023-02-28T14:06:25;2.40;93.00
5196;DHT22;2617;51.006;12.436;2023-02-28T14:11:30;2.70;95.20
5196;DHT22;2617;51.006;12.436;2023-02-28T14:16:44;2.70;95.20
5196;DHT22;2617;51.006;12.436;2023-02-28T14:21:51;3.20;93.60
5196;DHT22;2617;51.006;12.436;2023-02-28T14:32:41;3.20;94.00
5196;DHT22;2617;51.006;12.436;2023-02-28T14:37:44;3.10;93.10
5196;DHT22;2617;51.006;12.436;2023-02-28T14:42:54;3.00;95.20
5196;DHT22;2617;51.006;12.436;2023-02-28T14:47:51;3.10;94.50
5196;DHT22;2617;51.006;12.436;2023-02-28T14:52:53;2.90;94.90
5196;DHT22;2617;51.006;12.436;2023-02-28T14:57:57;2.70;94.60
5196;DHT22;2617;51.006;12.436;2023-02-28T15:02:59;2.60;95.50
5196;DHT22;2617;51.006;12.436;2023-02-28T15:08:06;2.50;95.10
5196;DHT22;2617;51.006;12.436;2023-02-28T15:13:11;2.50;96.00
5196;DHT22;2617;51.006;12.436;2023-02-28T15:18:15;2.50;95.00
5196;DHT22;2617;51.006;12.436;2023-02-28T15:23:17;2.50;96.20
5196;DHT22;2617;51.006;12.436;2023-02-28T15:28:19;2.50;96.80
5196;DHT22;2617;51.006;12.436;2023-02-28T15:33:24;2.40;96.80
5196;DHT22;2617;51.006;12.436;2023-02-28T15:38:27;2.30;97.10
5196;DHT22;2617;51.006;12.436;2023-02-28T15:43:31;2.20;96.40
5196;DHT22;2617;51.006;12.436;2023-02-28T15:48:53;2.00;97.70
5196;DHT22;2617;51.006;12.436;2023-02-28T15:53:57;2.00;97.60
5196;DHT22;2617;51.006;12.436;2023-02-28T15:58:59;1.90;98.30
5196;DHT22;2617;51.006;12.436;2023-02-28T16:04:05;1.80;99.10
5196;DHT22;2617;51.006;12.436;2023-02-28T16:09:08;1.80;99.00
5196;DHT22;2617;51.006;12.436;2023-02-28T16:14:14;1.70;99.20
5196;DHT22;2617;51.006;12.436;2023-02-28T16:19:15;1.60;99.90
5196;DHT22;2617;51.006;12.436;2023-02-28T16:24:17;1.60;99.60
5196;DHT22;2617;51.006;12.436;2023-02-28T16:29:26;1.50;99.90
5196;DHT22;2617;51.006;12.436;2023-02-28T16:34:29;1.40;99.90
5196;DHT22;2617;51.006;12.436;2023-02-28T16:39:31;1.30;99.90
5196;DHT22;2617;51.006;12.436;2023-02-28T16:44:34;1.20;99.90
5196;DHT22;2617;51.006;12.436;2023-02-28T16:49:37;1.00;99.90
5196;DHT22;2617;51.006;12.436;2023-02-28T16:54:40;1.10;99.90
5196;DHT22;2617;51.006;12.436;2023-02-28T16:59:42;0.90;99.90
5196;DHT22;2617;51.006;12.436;2023-02-28T17:04:45;0.80;99.90
5196;DHT22;2617;51.006;12.436;2023-02-28T17:09:48;0.40;99.90
5196;DHT22;2617;51.006;12.436;2023-02-28T17:14:50;0.40;99.90
5196;DHT22;2617;51.006;12.436;2023-02-28T17:19:52;0.20;99.90
5196;DHT22;2617;51.006;12.436;2023-02-28T17:24:55;0.10;99.90
5196;DHT22;2617;51.006;12.436;2023-02-28T17:29:59;0.00;99.90
5196;DHT22;2617;51.006;12.436;2023-02-28T17:35:02;-0.20;99.90
5196;DHT22;2617;51.006;12.436;2023-02-28T17:40:05;-0.20;99.90
5196;DHT22;2617;51.006;12.436;2023-02-28T17:45:09;-0.30;99.90
5196;DHT22;2617;51.006;12.436;2023-02-28T17:50:14;-0.30;99.90
5196;DHT22;2617;51.006;12.436;2023-02-28T17:55:15;-0.20;99.90
5196;DHT22;2617;51.006;12.436;2023-02-28T18:00:18;-0.20;99.90
5196;DHT22;2617;51.006;12.436;2023-02-28T18:05:21;-0.30;99.90
5196;DHT22;2617;51.006;12.436;2023-02-28T18:10:23;-0.50;99.90
5196;DHT22;2617;51.006;12.436;2023-02-28T18:15:28;-0.60;99.90
5196;DHT22;2617;51.006;12.436;2023-02-28T18:20:32;-0.80;99.90
5196;DHT22;2617;51.006;12.436;2023-02-28T18:25:34;-0.90;99.90
5196;DHT22;2617;51.006;12.436;2023-02-28T18:30:37;-0.90;99.90
5196;DHT22;2617;51.006;12.436;2023-02-28T18:35:39;-0.90;99.90
5196;DHT22;2617;51.006;12.436;2023-02-28T18:40:42;-0.90;99.90
5196;DHT22;2617;51.006;12.436;2023-02-28T18:45:45;-1.20;99.90
5196;DHT22;2617;51.006;12.436;2023-02-28T18:50:48;-1.20;99.90
5196;DHT22;2617;51.006;12.436;2023-02-28T18:55:51;-1.40;99.90
5196;DHT22;2617;51.006;12.436;2023-02-28T19:00:54;-1.50;99.90
5196;DHT22;2617;51.006;12.436;2023-02-28T19:05:57;-1.50;99.90
5196;DHT22;2617;51.006;12.436;2023-02-28T19:11:16;-1.70;99.90
5196;DHT22;2617;51.006;12.436;2023-02-28T19:16:18;-1.70;99.90
5196;DHT22;2617;51.006;12.436;2023-02-28T19:21:21;-1.60;99.90
5196;DHT22;2617;51.006;12.436;2023-02-28T19:26:23;-1.70;99.90
5196;DHT22;2617;51.006;12.436;2023-02-28T19:31:25;-1.70;99.90
5196;DHT22;2617;51.006;12.436;2023-02-28T19:36:28;-1.90;99.90
5196;DHT22;2617;51.006;12.436;2023-02-28T19:41:31;-1.90;99.90
5196;DHT22;2617;51.006;12.436;2023-02-28T19:46:33;-2.00;99.90
5196;DHT22;2617;51.006;12.436;2023-02-28T19:51:36;-2.10;99.90
5196;DHT22;2617;51.006;12.436;2023-02-28T19:56:38;-2.20;99.90
5196;DHT22;2617;51.006;12.436;2023-02-28T20:01:40;-2.30;99.90
5196;DHT22;2617;51.006;12.436;2023-02-28T20:06:43;-2.40;99.90
5196;DHT22;2617;51.006;12.436;2023-02-28T20:11:45;-2.50;99.90
5196;DHT22;2617;51.006;12.436;2023-02-28T20:16:48;-2.50;99.90
5196;DHT22;2617;51.006;12.436;2023-02-28T20:21:50;-2.50;99.90
5196;DHT22;2617;51.006;12.436;2023-02-28T20:26:52;-2.50;99.90
5196;DHT22;2617;51.006;12.436;2023-02-28T20:31:56;-2.60;99.90
5196;DHT22;2617;51.006;12.436;2023-02-28T20:36:58;-2.60;99.90
5196;DHT22;2617;51.006;12.436;2023-02-28T20:42:01;-2.60;99.90
5196;DHT22;2617;51.006;12.436;2023-02-28T20:47:04;-2.70;99.90
5196;DHT22;2617;51.006;12.436;2023-02-28T20:52:07;-2.90;99.90
5196;DHT22;2617;51.006;12.436;2023-02-28T20:57:10;-2.90;99.90
5196;DHT22;2617;51.006;12.436;2023-02-28T21:02:14;-3.00;99.90
5196;DHT22;2617;51.006;12.436;2023-02-28T21:07:15;-3.00;99.90
5196;DHT22;2617;51.006;12.436;2023-02-28T21:12:17;-3.10;99.90
5196;DHT22;2617;51.006;12.436;2023-02-28T21:17:20;-3.10;99.90
5196;DHT22;2617;51.006;12.436;2023-02-28T21:22:22;-3.20;99.90
5196;DHT22;2617;51.006;12.436;2023-02-28T21:27:24;-3.10;99.90
5196;DHT22;2617;51.006;12.436;2023-02-28T21:32:27;-3.20;99.90
5196;DHT22;2617;51.006;12.436;2023-02-28T21:37:29;-3.20;99.90
5196;DHT22;2617;51.006;12.436;2023-02-28T21:42:32;-3.30;99.90
5196;DHT22;2617;51.006;12.436;2023-02-28T21:47:35;-3.50;99.90
5196;DHT22;2617;51.006;12.436;2023-02-28T21:52:38;-3.50;99.90
5196;DHT22;2617;51.006;12.436;2023-02-28T21:57:41;-3.60;99.90
5196;DHT22;2617;51.006;12.436;2023-02-28T22:02:43;-3.60;99.90
5196;DHT22;2617;51.006;12.436;2023-02-28T22:07:46;-3.60;99.90
5196;DHT22;2617;51.006;12.436;2023-02-28T22:12:48;-3.70;99.90
5196;DHT22;2617;51.006;12.436;2023-02-28T22:17:51;-3.70;99.90
5196;DHT22;2617;51.006;12.436;2023-02-28T22:22:53;-3.70;99.90
5196;DHT22;2617;51.006;12.436;2023-02-28T22:27:55;-3.80;99.90
5196;DHT22;2617;51.006;12.436;2023-02-28T22:32:58;-3.80;99.90
5196;DHT22;2617;51.006;12.436;2023-02-28T22:38:02;-3.80;99.90
5196;DHT22;2617;51.006;12.436;2023-02-28T22:43:04;-3.90;99.90
5196;DHT22;2617;51.006;12.436;2023-02-28T22:48:07;-3.90;99.90
5196;DHT22;2617;51.006;12.436;2023-02-28T22:53:09;-3.90;99.90
5196;DHT22;2617;51.006;12.436;2023-02-28T22:58:11;-3.90;99.90
5196;DHT22;2617;51.006;12.436;2023-02-28T23:03:14;-3.90;99.90
5196;DHT22;2617;51.006;12.436;2023-02-28T23:08:16;-3.90;99.90
5196;DHT22;2617;51.006;12.436;2023-02-28T23:13:19;-3.90;99.90
5196;DHT22;2617;51.006;12.436;2023-02-28T23:18:22;-3.90;99.90
5196;DHT22;2617;51.006;12.436;2023-02-28T23:23:25;-3.90;99.90
5196;DHT22;2617;51.006;12.436;2023-02-28T23:28:28;-3.90;99.90
5196;DHT22;2617;51.006;12.436;2023-02-28T23:33:30;-3.90;99.90
5196;DHT22;2617;51.006;12.436;2023-02-28T23:38:33;-3.80;99.90
5196;DHT22;2617;51.006;12.436;2023-02-28T23:43:36;-3.90;99.90
5196;DHT22;2617;51.006;12.436;2023-02-28T23:48:38;-3.90;99.90
5196;DHT22;2617;51.006;12.436;2023-02-28T23:53:42;-3.90;99.90
5196;DHT22;2617;51.006;12.436;2023-02-28T23:58:44;-4.00;99.90
